Time;durP1;ratioP1;P1;durP2;ratioP2;P2;SDS_P1;SDS_P2;PMS_P1;PMS_P2;Temp;Humidity;BMP_temperature;BMP_pressure;BME280_temperature;BME280_humidity;BME280_pressure;Samples;Min_cycle;Max_cycle;Signal;HPM_P1;HPM_P2
2022/10/21 00:03:24;;;;;;;116.63;48.75;;;;;;;12.38;71.40;99502.19;10381339;28;20053;-67
2022/10/21 00:08:27;;;;;;;449.88;63.85;;;;;;;12.33;71.79;99500.84;10383433;28;20107;-67
2022/10/21 00:13:30;;;;;;;78.93;40.47;;;;;;;12.36;71.68;99492.75;10380725;28;20132;-67
2022/10/21 00:18:34;;;;;;;61.95;36.95;;;;;;;12.32;71.77;99476.41;10379738;28;20131;-67
2022/10/21 00:23:36;;;;;;;88.55;42.78;;;;;;;12.33;71.89;99470.22;10382272;28;20053;-66
2022/10/21 00:28:38;;;;;;;114.90;48.78;;;;;;;12.33;72.06;99466.78;10378860;28;20796;-67
2022/10/21 00:33:40;;;;;;;148.55;52.72;;;;;;;12.34;71.96;99455.31;10381039;28;20132;-67
2022/10/21 00:38:48;;;;;;;143.45;48.92;;;;;;;12.23;72.21;99450.84;10381101;28;20095;-67
2022/10/21 00:44:01;;;;;;;172.20;50.78;;;;;;;12.24;72.40;99455.13;10379423;28;20053;-67
2022/10/21 00:49:26;;;;;;;178.77;54.67;;;;;;;12.34;71.91;99463.19;10376671;28;20053;-67
2022/10/21 00:54:30;;;;;;;135.70;48.88;;;;;;;12.35;71.56;99457.84;10378309;28;20045;-67
2022/10/21 00:59:39;;;;;;;150.48;54.45;;;;;;;12.11;72.17;99459.59;10379843;28;20056;-66
2022/10/21 01:04:42;;;;;;;85.45;40.63;;;;;;;12.02;71.93;99455.06;10379716;28;20135;-67
2022/10/21 01:09:44;;;;;;;120.32;47.47;;;;;;;11.99;71.93;99456.09;10381677;28;20112;-67
2022/10/21 01:15:16;;;;;;;598.22;79.35;;;;;;;11.95;71.74;99443.31;10381225;28;20056;-67
2022/10/21 01:20:43;;;;;;;769.05;82.75;;;;;;;11.78;72.23;99444.56;10379537;28;20057;-67
2022/10/21 01:26:09;;;;;;;130.82;46.25;;;;;;;11.81;72.08;99446.13;10382390;28;20184;-67
2022/10/21 01:31:23;;;;;;;151.00;49.05;;;;;;;11.83;71.91;99433.75;10381661;28;20053;-67
2022/10/21 01:36:40;;;;;;;510.20;53.72;;;;;;;11.91;71.76;99421.75;10380944;28;20485;-67
2022/10/21 01:42:19;;;;;;;443.73;52.88;;;;;;;11.81;71.88;99405.03;10380937;28;20140;-67
2022/10/21 01:47:31;;;;;;;1504.25;87.32;;;;;;;11.74;72.02;99392.50;10380856;28;20061;-67
2022/10/21 01:52:33;;;;;;;806.47;67.13;;;;;;;11.74;72.08;99395.97;10383680;28;20860;-67
2022/10/21 01:57:40;;;;;;;162.07;42.10;;;;;;;11.88;71.73;99393.19;10388368;28;20056;-67
2022/10/21 02:02:46;;;;;;;284.83;51.38;;;;;;;11.99;71.51;99384.50;10382232;28;20064;-67
2022/10/21 02:07:50;;;;;;;1456.10;105.82;;;;;;;12.01;71.73;99353.78;10395323;28;20493;-67
2022/10/21 02:12:56;;;;;;;482.33;60.15;;;;;;;11.92;71.89;99352.69;10393534;28;20056;-66
2022/10/21 02:18:06;;;;;;;595.65;41.53;;;;;;;11.90;72.39;99346.72;10376800;28;20045;-66
2022/10/21 02:23:14;;;;;;;920.78;83.10;;;;;;;11.96;72.27;99346.28;10394523;28;20143;-67
2022/10/21 02:28:17;;;;;;;814.58;81.60;;;;;;;12.03;71.80;99347.47;10393321;28;20049;-67
2022/10/21 02:33:28;;;;;;;751.38;46.80;;;;;;;12.03;71.57;99336.16;10394441;28;20076;-67
2022/10/21 02:38:37;;;;;;;679.15;54.58;;;;;;;11.90;71.73;99367.69;10391399;28;20406;-67
2022/10/21 02:43:48;;;;;;;947.85;82.82;;;;;;;11.68;72.77;99351.03;10395485;28;20061;-67
2022/10/21 02:48:50;;;;;;;905.47;82.22;;;;;;;11.74;72.50;99347.97;10391953;28;20072;-67
2022/10/21 02:53:52;;;;;;;861.33;72.05;;;;;;;11.73;72.26;99351.53;10393874;28;20552;-67
2022/10/21 02:58:53;;;;;;;735.88;67.53;;;;;;;11.74;72.25;99348.81;10394587;28;20567;-66
2022/10/21 03:03:55;;;;;;;437.80;48.17;;;;;;;11.80;71.96;99350.16;10386629;28;20080;-67
2022/10/21 03:08:57;;;;;;;228.38;38.50;;;;;;;11.81;71.75;99336.91;10389621;28;20081;-67
2022/10/21 03:13:59;;;;;;;326.25;45.80;;;;;;;11.84;71.78;99341.94;10385788;28;20046;-67
2022/10/21 03:19:01;;;;;;;777.20;70.40;;;;;;;11.77;72.03;99329.41;10385802;28;20050;-67
2022/10/21 03:24:03;;;;;;;392.42;43.22;;;;;;;11.87;71.98;99325.13;10385505;28;20126;-67
2022/10/21 03:29:20;;;;;;;749.10;60.40;;;;;;;11.83;71.91;99321.91;10383935;28;20053;-66
2022/10/21 03:34:22;;;;;;;580.17;64.30;;;;;;;11.84;72.12;99310.50;10387049;28;20716;-66
2022/10/21 03:39:23;;;;;;;296.25;41.58;;;;;;;11.89;71.83;99318.84;10381530;28;20056;-67
2022/10/21 03:44:25;;;;;;;254.63;45.03;;;;;;;11.97;71.66;99320.88;10382947;28;20088;-67
2022/10/21 03:49:27;;;;;;;199.00;39.45;;;;;;;12.03;71.50;99323.88;10381168;28;20057;-67
2022/10/21 03:54:29;;;;;;;198.80;34.67;;;;;;;12.05;71.48;99308.88;10381884;28;20077;-67
2022/10/21 03:59:31;;;;;;;310.48;40.67;;;;;;;12.14;71.58;99291.63;10384132;28;20397;-67
2022/10/21 04:04:33;;;;;;;794.33;65.82;;;;;;;12.17;71.15;99280.91;10384619;28;20521;-67
2022/10/21 04:09:34;;;;;;;676.35;55.22;;;;;;;12.03;71.62;99286.34;10382965;28;20060;-67
2022/10/21 04:14:36;;;;;;;490.15;50.55;;;;;;;12.12;71.66;99285.66;10384693;28;20072;-67
2022/10/21 04:19:38;;;;;;;362.50;47.72;;;;;;;12.20;71.42;99291.16;10384354;28;20049;-67
2022/10/21 04:24:40;;;;;;;381.55;42.45;;;;;;;12.24;71.44;99297.84;10381284;28;20211;-67
2022/10/21 04:29:42;;;;;;;419.52;44.05;;;;;;;12.33;71.27;99293.72;10381776;28;20053;-67
2022/10/21 04:34:44;;;;;;;622.72;51.95;;;;;;;12.29;71.24;99290.50;10380785;28;20073;-67
2022/10/21 04:39:46;;;;;;;388.27;43.35;;;;;;;12.34;71.19;99292.75;10383636;28;20045;-67
2022/10/21 04:44:48;;;;;;;211.25;28.13;;;;;;;12.36;71.03;99289.06;10384219;28;20050;-67
2022/10/21 04:49:49;;;;;;;353.38;39.90;;;;;;;12.39;71.11;99280.13;10383142;28;20060;-68
2022/10/21 04:54:51;;;;;;;430.13;41.97;;;;;;;12.42;70.87;99270.22;10382145;28;20151;-67
2022/10/21 04:59:53;;;;;;;457.20;37.83;;;;;;;12.46;70.87;99270.81;10381740;28;20445;-67
2022/10/21 05:04:55;;;;;;;687.83;49.50;;;;;;;12.43;71.09;99266.66;10379923;28;20049;-67
2022/10/21 05:09:57;;;;;;;547.60;42.13;;;;;;;12.40;71.04;99261.66;10382181;28;20057;-67
2022/10/21 05:14:59;;;;;;;356.27;32.25;;;;;;;12.44;71.12;99263.06;10383444;28;20466;-67
2022/10/21 05:20:05;;;;;;;420.63;37.53;;;;;;;12.44;70.88;99252.59;10381548;28;20080;-67
2022/10/21 05:25:07;;;;;;;466.30;44.70;;;;;;;12.38;71.34;99246.97;10384382;28;20081;-67
2022/10/21 05:30:10;;;;;;;611.33;52.47;;;;;;;12.42;71.01;99243.16;10387517;28;20100;-67
2022/10/21 05:35:12;;;;;;;397.90;39.22;;;;;;;12.31;71.46;99230.06;10387415;28;20671;-67
2022/10/21 05:40:14;;;;;;;367.50;31.85;;;;;;;12.27;71.57;99229.44;10388750;28;20120;-68
2022/10/21 05:45:16;;;;;;;404.75;36.42;;;;;;;12.33;71.46;99226.38;10391021;28;20052;-68
2022/10/21 05:50:18;;;;;;;457.58;40.78;;;;;;;12.41;71.50;99224.00;10388959;28;20064;-68
2022/10/21 05:55:20;;;;;;;337.40;36.47;;;;;;;12.43;71.32;99229.94;10387892;28;20084;-68
2022/10/21 06:00:22;;;;;;;628.75;55.55;;;;;;;12.42;71.32;99228.28;10389739;28;20057;-67
2022/10/21 06:05:24;;;;;;;204.68;27.85;;;;;;;12.41;71.37;99231.84;10387874;28;20418;-67
2022/10/21 06:10:26;;;;;;;426.33;40.28;;;;;;;12.33;71.55;99234.25;10386916;28;20069;-67
2022/10/21 06:15:29;;;;;;;367.77;37.67;;;;;;;12.35;71.53;99240.22;10385518;28;20146;-67
2022/10/21 06:20:34;;;;;;;338.52;35.85;;;;;;;12.38;71.35;99245.19;10388295;28;20054;-67
2022/10/21 06:25:36;;;;;;;186.85;22.15;;;;;;;12.42;71.58;99246.63;10386630;28;20049;-68
2022/10/21 06:30:38;;;;;;;674.33;38.38;;;;;;;12.49;71.42;99247.84;10387875;28;20061;-67
2022/10/21 06:35:40;;;;;;;301.00;26.90;;;;;;;12.50;71.23;99251.25;10387936;28;20338;-67
2022/10/21 06:40:42;;;;;;;408.13;40.17;;;;;;;12.45;71.55;99248.19;10387475;28;20422;-68
2022/10/21 06:45:44;;;;;;;371.13;38.08;;;;;;;12.47;71.24;99247.13;10387103;28;20053;-68
2022/10/21 06:50:46;;;;;;;158.77;27.60;;;;;;;12.48;71.43;99248.75;10386810;28;20578;-67
2022/10/21 06:55:48;;;;;;;384.88;35.40;;;;;;;12.50;71.10;99241.63;10387540;28;20057;-68
2022/10/21 07:00:50;;;;;;;132.88;30.92;;;;;;;12.61;71.29;99252.09;10386327;28;20054;-67
2022/10/21 07:05:58;;;;;;;48.92;23.38;;;;;;;12.65;71.00;99261.41;10383709;28;20046;-68
2022/10/21 07:11:01;;;;;;;709.72;44.30;;;;;;;12.70;71.15;99258.44;10387254;28;20049;-67
2022/10/21 07:16:12;;;;;;;466.23;35.38;;;;;;;12.77;71.14;99265.69;10385481;28;20057;-67
2022/10/21 07:21:17;;;;;;;412.65;29.83;;;;;;;12.80;70.97;99275.09;10385371;28;20482;-67
2022/10/21 07:26:21;;;;;;;319.40;26.88;;;;;;;12.74;71.10;99281.66;10384384;28;20052;-67
2022/10/21 07:31:23;;;;;;;452.48;25.50;;;;;;;12.74;71.35;99271.16;10383635;28;20049;-68
2022/10/21 07:36:27;;;;;;;59.78;24.95;;;;;;;12.78;71.23;99277.03;10384359;28;20410;-68
2022/10/21 07:41:39;;;;;;;77.80;26.58;;;;;;;12.85;71.13;99292.16;10382385;28;20049;-68
2022/10/21 07:46:42;;;;;;;38.22;20.48;;;;;;;12.96;71.11;99299.19;10382897;28;20389;-67
2022/10/21 07:51:44;;;;;;;31.52;17.00;;;;;;;13.00;71.19;99291.88;10381427;28;20395;-68
2022/10/21 07:56:48;;;;;;;62.28;23.75;;;;;;;13.08;70.77;99302.59;10383276;28;20041;-68
2022/10/21 08:01:51;;;;;;;49.17;17.92;;;;;;;13.12;70.99;99298.78;10381728;28;20057;-68
2022/10/21 08:06:55;;;;;;;33.25;18.95;;;;;;;13.16;71.07;99301.03;10384453;28;20438;-68
2022/10/21 08:11:57;;;;;;;55.88;22.88;;;;;;;13.20;71.04;99306.88;10384656;28;20053;-68
2022/10/21 08:16:59;;;;;;;152.57;33.15;;;;;;;13.29;70.93;99303.53;10380348;28;20045;-67
2022/10/21 08:22:01;;;;;;;77.10;26.30;;;;;;;13.26;70.92;99304.59;10379482;28;20417;-73
2022/10/21 08:27:04;;;;;;;37.85;19.27;;;;;;;13.29;70.70;99311.41;10380789;28;20053;-74
2022/10/21 08:32:06;;;;;;;29.75;17.40;;;;;;;13.26;70.99;99291.47;10382256;28;20065;-73
2022/10/21 08:37:08;;;;;;;39.28;19.25;;;;;;;13.33;71.12;99292.63;10383563;28;20050;-73
2022/10/21 08:42:13;;;;;;;68.68;24.63;;;;;;;13.26;71.03;99299.34;10383095;28;20053;-74
2022/10/21 08:47:26;;;;;;;48.63;20.73;;;;;;;13.20;71.54;99299.84;10376141;28;20057;-74
2022/10/21 08:52:42;;;;;;;41.90;20.67;;;;;;;13.25;70.94;99302.91;10361563;28;20061;-73
2022/10/21 08:57:46;;;;;;;49.70;26.02;;;;;;;13.28;71.31;99296.59;10377899;28;20045;-74
2022/10/21 09:03:14;;;;;;;45.33;23.98;;;;;;;13.42;70.86;99298.94;10385059;28;20054;-74
2022/10/21 09:08:39;;;;;;;52.20;23.70;;;;;;;13.59;70.76;99294.03;10383178;28;20556;-73
2022/10/21 09:13:58;;;;;;;51.47;25.48;;;;;;;13.69;71.03;99296.72;10387356;28;20585;-74
2022/10/21 09:19:23;;;;;;;37.42;20.38;;;;;;;13.76;70.66;99308.38;10382273;28;20060;-73
2022/10/21 09:24:51;;;;;;;70.63;29.63;;;;;;;13.88;70.70;99303.91;10387091;28;20327;-73
2022/10/21 09:30:01;;;;;;;51.70;26.98;;;;;;;14.03;70.60;99298.19;10376217;28;20099;-74
2022/10/21 09:35:32;;;;;;;57.03;27.40;;;;;;;13.99;70.63;99301.22;10387693;28;20048;-73
2022/10/21 09:40:34;;;;;;;629.50;41.70;;;;;;;13.99;70.57;99296.78;10378007;28;20951;-74
2022/10/21 09:45:42;;;;;;;94.13;21.83;;;;;;;13.97;70.50;99288.19;10383941;28;20071;-73
2022/10/21 09:50:47;;;;;;;54.70;24.42;;;;;;;13.99;70.68;99291.53;10382642;28;20053;-73
2022/10/21 09:55:55;;;;;;;44.33;22.75;;;;;;;14.09;70.64;99279.28;10387205;28;20049;-74
2022/10/21 10:00:57;;;;;;;38.78;22.27;;;;;;;14.12;70.81;99283.44;10380106;28;20406;-73
2022/10/21 10:06:01;;;;;;;54.08;25.95;;;;;;;14.18;70.67;99283.78;10389002;28;20293;-74
2022/10/21 10:11:13;;;;;;;43.63;23.92;;;;;;;14.19;70.60;99288.06;10381644;28;20072;-74
2022/10/21 10:16:32;;;;;;;45.72;24.13;;;;;;;14.26;70.84;99283.13;10385965;28;20041;-73
2022/10/21 10:21:34;;;;;;;36.05;20.90;;;;;;;14.35;70.87;99270.00;10372772;28;20068;-74
2022/10/21 10:26:39;;;;;;;172.98;27.05;;;;;;;14.41;71.05;99268.66;10414480;28;20322;-74
2022/10/21 10:31:52;;;;;;;83.82;27.45;;;;;;;14.39;71.22;99281.94;10380424;28;20049;-74
2022/10/21 10:37:24;;;;;;;31.08;19.38;;;;;;;14.38;71.13;99280.28;10382123;28;20476;-74
2022/10/21 10:42:36;;;;;;;54.60;30.25;;;;;;;14.40;71.55;99272.25;10385910;28;20057;-74
2022/10/21 10:47:47;;;;;;;48.38;29.45;;;;;;;14.62;71.26;99272.09;10378747;28;20052;-74
2022/10/21 10:53:20;;;;;;;334.95;38.90;;;;;;;14.76;70.73;99287.50;10383190;28;20053;-74
2022/10/21 10:58:26;;;;;;;67.07;36.10;;;;;;;14.95;70.33;99323.59;10382011;28;20591;-74
2022/10/21 11:03:37;;;;;;;27.13;19.75;;;;;;;14.99;70.29;99307.41;10383362;28;20219;-74
2022/10/21 11:08:49;;;;;;;51.20;27.25;;;;;;;15.29;70.02;99324.94;10381336;28;20049;-73
2022/10/21 11:13:52;;;;;;;39.55;23.15;;;;;;;15.63;69.42;99328.91;10386679;28;20045;-74
2022/10/21 11:19:07;;;;;;;41.90;24.20;;;;;;;15.73;68.96;99335.03;10379430;28;20099;-74
2022/10/21 11:24:49;;;;;;;37.92;22.23;;;;;;;15.46;69.48;99336.63;10373862;28;20045;-74
2022/10/21 11:30:09;;;;;;;45.50;24.95;;;;;;;15.72;69.87;99325.44;10379983;28;20052;-74
2022/10/21 11:35:36;;;;;;;32.83;19.77;;;;;;;16.09;69.16;99315.00;10383781;28;20053;-74
2022/10/21 11:40:48;;;;;;;17.73;11.95;;;;;;;16.41;68.59;99315.47;10380061;28;20075;-73
2022/10/21 11:45:53;;;;;;;14.93;10.57;;;;;;;16.75;68.35;99314.00;10386213;28;20231;-74
2022/10/21 11:50:54;;;;;;;15.60;9.20;;;;;;;17.09;67.88;99316.06;10377725;28;20405;-75
2022/10/21 11:55:56;;;;;;;10.52;5.47;;;;;;;17.49;67.16;99314.72;10384339;28;20041;-74
2022/10/21 12:01:22;;;;;;;12.73;8.50;;;;;;;17.89;66.47;99310.81;10376887;28;20046;-74
2022/10/21 12:06:33;;;;;;;7.90;3.72;;;;;;;18.65;65.68;99305.56;10382089;28;20609;-74
2022/10/21 12:12:04;;;;;;;6.10;2.90;;;;;;;19.18;63.83;99301.81;10376931;28;20065;-74
2022/10/21 12:17:12;;;;;;;6.25;2.30;;;;;;;19.05;64.33;99301.47;10376236;28;20042;-73
2022/10/21 12:22:14;;;;;;;4.63;2.13;;;;;;;19.08;64.73;99291.38;10384700;28;20518;-74
2022/10/21 12:27:38;;;;;;;4.55;2.03;;;;;;;19.12;62.47;99292.69;10376862;28;20053;-74
2022/10/21 12:32:49;;;;;;;3.42;1.77;;;;;;;19.16;63.49;99283.44;10381365;28;20056;-74
2022/10/21 12:37:51;;;;;;;3.83;1.70;;;;;;;19.33;63.25;99284.31;10370236;28;20067;-74
2022/10/21 12:43:00;;;;;;;5.60;1.75;;;;;;;19.17;63.55;99292.22;10381981;28;20064;-74
2022/10/21 12:48:21;;;;;;;4.68;1.70;;;;;;;18.76;63.58;99301.81;10374473;28;20410;-73
2022/10/21 12:53:48;;;;;;;5.70;1.40;;;;;;;18.57;63.46;99289.63;10380731;28;20049;-75
2022/10/21 12:58:57;;;;;;;2.85;1.35;;;;;;;18.65;61.72;99292.31;10374256;28;20552;-74
2022/10/21 13:04:00;;;;;;;4.80;1.20;;;;;;;18.53;63.46;99296.22;10376583;28;20053;-74
2022/10/21 13:09:02;;;;;;;3.20;1.50;;;;;;;18.62;64.02;99290.00;10373357;28;20524;-74
2022/10/21 13:14:16;;;;;;;6.45;1.38;;;;;;;18.37;63.35;99288.19;10376511;28;20060;-74
2022/10/21 13:19:18;;;;;;;4.68;1.40;;;;;;;18.29;63.82;99287.31;10375149;28;20301;-75
2022/10/21 13:24:29;;;;;;;6.18;1.40;;;;;;;18.23;64.13;99277.34;10378628;28;20057;-74
2022/10/21 13:29:47;;;;;;;4.72;1.40;;;;;;;18.12;64.02;99283.69;10368092;28;20366;-74
2022/10/21 13:35:10;;;;;;;7.70;1.70;;;;;;;18.13;64.87;99293.31;10379402;28;20050;-74
2022/10/21 13:40:18;;;;;;;8.82;1.38;;;;;;;18.17;64.53;99292.00;10377613;28;20316;-74
2022/10/21 13:45:29;;;;;;;5.18;1.50;;;;;;;18.19;63.87;99283.91;10382227;28;20049;-74
2022/10/21 13:50:37;;;;;;;3.40;1.30;;;;;;;18.32;64.06;99287.00;10375698;28;20115;-75
2022/10/21 13:55:39;;;;;;;4.60;1.85;;;;;;;18.28;64.11;99285.66;10387702;28;20383;-74
2022/10/21 14:00:41;;;;;;;7.38;1.48;;;;;;;18.01;64.22;99293.69;10383265;28;20052;-73
2022/10/21 14:05:50;;;;;;;9.32;1.60;;;;;;;17.91;64.71;99288.50;10386273;28;20077;-74
2022/10/21 14:10:58;;;;;;;3.10;1.60;;;;;;;17.87;65.20;99286.31;10383651;28;20053;-73
2022/10/21 14:16:00;;;;;;;5.70;1.33;;;;;;;17.88;65.61;99282.66;10381179;28;20053;-75
2022/10/21 14:21:04;;;;;;;5.25;1.45;;;;;;;17.92;64.77;99276.94;10377729;28;20140;-74
2022/10/21 14:26:07;;;;;;;4.72;1.40;;;;;;;18.01;65.35;99283.13;10384890;28;20076;-73
2022/10/21 14:31:12;;;;;;;7.63;1.27;;;;;;;18.10;65.23;99261.84;10377567;28;20068;-74
2022/10/21 14:36:18;;;;;;;3.20;1.38;;;;;;;18.25;64.70;99264.78;10386570;28;20049;-74
2022/10/21 14:41:36;;;;;;;7.43;1.30;;;;;;;18.23;64.94;99264.94;10378745;28;20057;-74
2022/10/21 14:46:41;;;;;;;7.43;1.50;;;;;;;18.53;65.23;99253.03;10385317;28;20579;-73
2022/10/21 14:51:43;;;;;;;7.63;1.67;;;;;;;18.24;64.78;99252.56;10379921;28;20057;-73
2022/10/21 14:56:45;;;;;;;5.30;1.95;;;;;;;18.11;66.13;99267.97;10383662;28;20046;-73
2022/10/21 15:01:48;;;;;;;7.03;2.20;;;;;;;17.82;66.94;99262.97;10373949;28;20108;-74
2022/10/21 15:07:00;;;;;;;11.98;2.25;;;;;;;17.74;67.15;99258.44;10381964;28;20454;-74
2022/10/21 15:12:17;;;;;;;8.77;2.08;;;;;;;17.56;66.81;99256.78;10383067;28;20053;-74
2022/10/21 15:17:21;;;;;;;7.43;2.40;;;;;;;17.45;66.97;99244.63;10380541;28;20498;-74
2022/10/21 15:22:28;;;;;;;8.73;2.72;;;;;;;17.34;67.46;99259.91;10384706;28;20154;-73
2022/10/21 15:27:36;;;;;;;7.93;2.10;;;;;;;17.16;67.51;99243.97;10381384;28;20061;-74
2022/10/21 15:32:42;;;;;;;4.55;2.05;;;;;;;16.95;68.00;99251.38;10382678;28;20057;-74
2022/10/21 15:37:51;;;;;;;9.50;2.40;;;;;;;16.82;68.35;99253.50;10375448;28;20107;-73
2022/10/21 15:42:55;;;;;;;8.03;1.90;;;;;;;16.72;68.18;99256.22;10380640;28;21447;-73
2022/10/21 15:47:57;;;;;;;10.20;2.30;;;;;;;16.64;68.62;99261.41;10382870;28;20652;-74
2022/10/21 15:53:02;;;;;;;7.47;3.00;;;;;;;16.64;69.14;99260.56;10381999;28;20439;-73
2022/10/21 15:58:06;;;;;;;10.07;4.20;;;;;;;16.43;69.82;99263.41;10385171;28;20057;-74
2022/10/21 16:03:08;;;;;;;10.60;3.15;;;;;;;16.45;69.74;99271.19;10381641;28;20509;-74
2022/10/21 16:08:11;;;;;;;8.10;4.00;;;;;;;16.46;70.24;99271.06;10381846;28;20053;-74
2022/10/21 16:13:13;;;;;;;11.45;4.18;;;;;;;16.54;70.06;99270.31;10381444;28;20531;-75
2022/10/21 16:18:15;;;;;;;7.20;3.25;;;;;;;16.58;69.58;99263.78;10385016;28;20053;-76
2022/10/21 16:23:17;;;;;;;18.00;8.18;;;;;;;16.54;69.94;99270.31;10384239;28;20148;-75
2022/10/21 16:28:19;;;;;;;14.15;6.43;;;;;;;16.38;70.54;99281.47;10384579;28;20103;-74
2022/10/21 16:33:24;;;;;;;14.75;5.68;;;;;;;16.42;70.59;99282.84;10382019;28;20053;-74
2022/10/21 16:38:26;;;;;;;12.27;7.30;;;;;;;16.22;70.71;99282.06;10384428;28;20056;-74
2022/10/21 16:43:28;;;;;;;14.98;6.03;;;;;;;16.14;70.71;99286.41;10382926;28;20127;-73
2022/10/21 16:48:30;;;;;;;14.55;7.75;;;;;;;16.02;70.79;99298.06;10384548;28;20063;-74
2022/10/21 16:53:32;;;;;;;12.65;4.22;;;;;;;15.84;71.57;99303.22;10383793;28;20045;-74
2022/10/21 16:58:34;;;;;;;13.02;6.63;;;;;;;15.81;71.29;99300.03;10375370;28;20041;-74
2022/10/21 17:03:36;;;;;;;15.15;6.45;;;;;;;15.67;71.43;99314.50;10383047;28;20049;-73
2022/10/21 17:08:38;;;;;;;18.38;8.27;;;;;;;15.56;71.12;99321.69;10384120;28;20053;-74
2022/10/21 17:13:42;;;;;;;17.20;7.53;;;;;;;15.34;71.68;99326.22;10382947;28;20052;-74
2022/10/21 17:18:44;;;;;;;18.08;6.28;;;;;;;15.30;71.75;99323.97;10378796;28;20103;-74
2022/10/21 17:23:50;;;;;;;11.15;6.95;;;;;;;15.21;72.13;99335.31;10389828;28;20053;-74
2022/10/21 17:28:52;;;;;;;18.65;9.63;;;;;;;15.12;71.93;99336.16;10389851;28;20111;-74
2022/10/21 17:34:06;;;;;;;9.77;5.90;;;;;;;15.04;72.28;99335.97;10390815;28;20080;-74
2022/10/21 17:39:08;;;;;;;12.43;7.70;;;;;;;14.97;72.14;99335.69;10388791;28;20536;-74
2022/10/21 17:44:13;;;;;;;17.80;9.48;;;;;;;14.95;72.47;99336.78;10389307;28;20057;-74
2022/10/21 17:49:14;;;;;;;19.98;12.35;;;;;;;14.88;72.31;99338.28;10380820;28;20046;-73
2022/10/21 17:54:18;;;;;;;26.10;12.40;;;;;;;14.85;72.10;99347.28;10388809;28;20056;-66
2022/10/21 17:59:27;;;;;;;22.65;14.23;;;;;;;14.66;72.52;99347.19;10385221;28;20469;-65
2022/10/21 18:04:30;;;;;;;241.15;12.55;;;;;;;14.57;72.44;99343.53;10389198;28;20053;-65
2022/10/21 18:09:32;;;;;;;17.75;12.38;;;;;;;14.47;72.50;99347.88;10387803;28;20068;-66
2022/10/21 18:14:39;;;;;;;27.10;12.38;;;;;;;14.43;72.60;99361.44;10388116;28;20041;-65
2022/10/21 18:19:41;;;;;;;26.13;15.00;;;;;;;14.39;72.36;99363.47;10386561;28;20508;-65
2022/10/21 18:24:43;;;;;;;195.38;19.33;;;;;;;14.34;72.45;99357.78;10368419;28;20228;-65
2022/10/21 18:29:45;;;;;;;25.85;18.48;;;;;;;14.29;72.62;99367.00;10383538;28;20053;-65
2022/10/21 18:34:47;;;;;;;319.48;53.88;;;;;;;14.32;72.40;99364.13;10388717;28;20049;-65
2022/10/21 18:39:52;;;;;;;472.95;41.38;;;;;;;14.25;72.73;99348.03;10385352;28;20056;-65
2022/10/21 18:44:59;;;;;;;437.13;53.23;;;;;;;14.28;72.58;99353.03;10386681;28;20521;-66
2022/10/21 18:50:01;;;;;;;736.50;34.38;;;;;;;14.33;72.21;99342.97;10388047;28;20061;-65
2022/10/21 18:55:03;;;;;;;467.92;13.55;;;;;;;14.26;72.39;99333.94;10385094;28;20038;-65
2022/10/21 19:00:10;;;;;;;313.02;22.95;;;;;;;14.24;72.21;99346.38;10388064;28;20049;-66
2022/10/21 19:05:12;;;;;;;129.20;11.80;;;;;;;14.19;72.43;99352.97;10388232;28;20525;-65
2022/10/21 19:10:14;;;;;;;231.30;15.57;;;;;;;14.18;72.27;99346.88;10387570;28;20049;-65
2022/10/21 19:15:17;;;;;;;195.75;11.43;;;;;;;14.18;72.22;99346.88;10386303;28;20052;-65
2022/10/21 19:20:19;;;;;;;88.55;9.55;;;;;;;14.19;72.05;99358.22;10385695;28;20061;-65
2022/10/21 19:25:21;;;;;;;183.32;17.50;;;;;;;14.17;71.63;99362.78;10387343;28;20053;-65
2022/10/21 19:30:23;;;;;;;115.72;9.48;;;;;;;14.07;71.84;99346.94;10386619;28;20053;-65
2022/10/21 19:35:26;;;;;;;78.35;9.73;;;;;;;14.04;71.67;99355.09;10387142;28;20077;-65
2022/10/21 19:40:28;;;;;;;259.35;20.35;;;;;;;14.03;71.74;99368.34;10387864;28;20057;-65
2022/10/21 19:45:29;;;;;;;200.93;15.48;;;;;;;13.90;71.57;99379.06;10386694;28;20402;-65
2022/10/21 19:50:31;;;;;;;124.00;9.30;;;;;;;13.72;72.30;99401.56;10386780;28;20053;-65
2022/10/21 19:55:33;;;;;;;67.63;17.75;;;;;;;13.66;72.19;99415.19;10386192;28;20048;-66
2022/10/21 20:00:35;;;;;;;138.18;16.33;;;;;;;13.51;72.41;99417.28;10376356;28;20047;-66
2022/10/21 20:05:41;;;;;;;261.80;19.40;;;;;;;13.42;73.02;99394.38;10381504;28;20052;-66
2022/10/21 20:10:44;;;;;;;40.30;9.52;;;;;;;13.47;72.97;99392.22;10382397;28;20362;-66
2022/10/21 20:15:46;;;;;;;81.40;15.10;;;;;;;13.60;72.85;99389.41;10383977;28;20112;-65
2022/10/21 20:20:48;;;;;;;197.32;16.38;;;;;;;13.61;72.46;99389.31;10386336;28;20196;-66
2022/10/21 20:25:57;;;;;;;824.72;32.40;;;;;;;13.66;72.09;99396.81;10383595;28;20490;-66
2022/10/21 20:31:03;;;;;;;1279.95;48.10;;;;;;;13.58;72.05;99393.97;10384427;28;20098;-65
2022/10/21 20:36:08;;;;;;;831.90;23.67;;;;;;;13.56;72.34;99391.47;10384777;28;20060;-65
2022/10/21 20:41:13;;;;;;;554.08;26.65;;;;;;;13.58;71.82;99392.19;10385166;28;20049;-66
2022/10/21 20:46:16;;;;;;;601.20;28.40;;;;;;;13.58;72.24;99405.31;10381984;28;20323;-66
2022/10/21 20:51:24;;;;;;;527.35;32.65;;;;;;;13.56;72.07;99411.63;10384527;28;20054;-65
2022/10/21 20:56:28;;;;;;;191.23;15.60;;;;;;;13.51;72.23;99414.66;10383266;28;20505;-65
2022/10/21 21:01:33;;;;;;;215.32;13.93;;;;;;;13.49;72.33;99423.63;10382078;28;20481;-65
2022/10/21 21:06:41;;;;;;;562.40;23.98;;;;;;;13.47;72.39;99443.91;10381151;28;20056;-66
2022/10/21 21:11:44;;;;;;;865.80;34.05;;;;;;;13.48;72.52;99446.41;10384257;28;20489;-65
2022/10/21 21:16:46;;;;;;;589.30;16.77;;;;;;;13.43;72.87;99445.13;10381630;28;20498;-65
2022/10/21 21:21:47;;;;;;;1020.22;33.45;;;;;;;13.41;72.78;99429.41;10381350;28;20052;-65
2022/10/21 21:26:49;;;;;;;800.38;29.02;;;;;;;13.40;72.66;99426.91;10383823;28;20108;-65
2022/10/21 21:31:51;;;;;;;136.07;12.00;;;;;;;13.42;72.80;99399.63;10382007;28;20049;-65
2022/10/21 21:36:53;;;;;;;539.75;24.50;;;;;;;13.34;72.65;99382.75;10383458;28;20497;-65
2022/10/21 21:41:55;;;;;;;413.02;18.25;;;;;;;13.32;72.73;99395.19;10382159;28;20091;-65
2022/10/21 21:46:57;;;;;;;214.18;15.02;;;;;;;13.44;72.60;99404.75;10382467;28;20486;-64
2022/10/21 21:51:59;;;;;;;436.80;22.85;;;;;;;13.43;72.29;99406.53;10383175;28;20046;-64
2022/10/21 21:57:01;;;;;;;513.88;27.67;;;;;;;13.42;72.11;99380.34;10380587;28;20131;-65
2022/10/21 22:02:23;;;;;;;475.77;27.75;;;;;;;13.38;72.08;99402.56;10378370;28;20049;-65
2022/10/21 22:07:25;;;;;;;251.18;17.23;;;;;;;13.38;72.10;99386.81;10381224;28;20144;-65
2022/10/21 22:12:27;;;;;;;248.23;12.93;;;;;;;13.37;72.20;99401.72;10387447;28;20525;-65
2022/10/21 22:17:29;;;;;;;648.25;37.47;;;;;;;13.44;71.91;99417.88;10384108;28;20140;-65
2022/10/21 22:22:33;;;;;;;837.53;40.30;;;;;;;13.47;71.89;99407.13;10383610;28;20053;-64
2022/10/21 22:27:35;;;;;;;393.80;24.65;;;;;;;13.50;72.27;99401.63;10379351;28;20454;-65
2022/10/21 22:32:38;;;;;;;437.95;28.63;;;;;;;13.55;72.02;99415.25;10387522;28;20050;-65
2022/10/21 22:37:40;;;;;;;619.65;30.15;;;;;;;13.57;71.82;99426.47;10382838;28;20641;-64
2022/10/21 22:42:42;;;;;;;468.52;23.85;;;;;;;13.45;71.61;99416.94;10387933;28;20041;-65
2022/10/21 22:47:45;;;;;;;621.28;39.00;;;;;;;13.34;72.22;99406.41;10385929;28;20123;-65
2022/10/21 22:52:47;;;;;;;423.10;32.38;;;;;;;13.40;71.90;99400.66;10388561;28;20053;-64
2022/10/21 22:57:48;;;;;;;299.38;27.05;;;;;;;13.43;71.99;99390.75;10384594;28;20128;-65
2022/10/21 23:02:50;;;;;;;189.32;18.45;;;;;;;13.44;71.83;99383.72;10384454;28;20970;-64
2022/10/21 23:07:52;;;;;;;305.73;21.92;;;;;;;13.43;72.11;99396.03;10385617;28;20060;-64
2022/10/21 23:12:54;;;;;;;349.65;34.45;;;;;;;13.39;71.67;99391.13;10386995;28;20085;-65